Time;durP1;ratioP1;P1;durP2;ratioP2;P2;SDS_P1;SDS_P2;PMS_P1;PMS_P2;Temp;Humidity;BMP_temperature;BMP_pressure;BME280_temperature;BME280_humidity;BME280_pressure;Samples;Min_cycle;Max_cycle;Signal;HPM_P1;HPM_P2
2022/04/08 00:00:26;;;;;;;;;;;;;;;;;;5122425;28;20363;-85
2022/04/08 00:02:52;;;;;;;;;;;;;;;;;;5123562;28;19929;-84
2022/04/08 00:05:17;;;;;;;;;;;;;;;;;;5123437;28;19916;-85
2022/04/08 00:07:43;;;;;;;;;;;;;;;;;;5122787;27;19941;-84
2022/04/08 00:10:09;;;;;;;;;;;;;;;;;;5104598;28;19962;-84
2022/04/08 00:12:34;;;;;;;;;;;;;;;;;;5120325;28;20014;-84
2022/04/08 00:14:59;;;;;;;;;;;;;;;;;;5120571;28;19923;-85
2022/04/08 00:17:25;;;;;;;;;;;;;;;;;;5122089;28;20268;-84
2022/04/08 00:19:50;;;;;;;;;;;;;;;;;;5120410;28;19919;-84
2022/04/08 00:22:18;;;;;;;;;;;;;;;;;;5121309;27;19916;-85
2022/04/08 00:24:43;;;;;;;;;;;;;;;;;;5120613;28;19927;-84
2022/04/08 00:27:08;;;;;;;;;;;;;;;;;;5122112;28;19916;-85
2022/04/08 00:29:34;;;;;;;;;;;;;;;;;;5121206;28;19924;-85
2022/04/08 00:31:59;;;;;;;;;;;;;;;;;;5119759;28;20339;-85
2022/04/08 00:34:25;;;;;;;;;;;;;;;;;;5121669;28;19915;-85
2022/04/08 00:36:50;;;;;;;;;;;;;;;;;;5120139;28;19920;-85
2022/04/08 00:39:16;;;;;;;;;;;;;;;;;;5119993;28;19916;-85
2022/04/08 00:41:41;;;;;;;;;;;;;;;;;;5121095;28;19961;-85
2022/04/08 00:44:06;;;;;;;;;;;;;;;;;;5120781;28;19924;-86
2022/04/08 00:46:32;;;;;;;;;;;;;;;;;;5124279;28;19960;-85
2022/04/08 00:48:57;;;;;;;;;;;;;;;;;;5124043;28;19966;-86
2022/04/08 00:51:23;;;;;;;;;;;;;;;;;;5123424;28;20036;-85
2022/04/08 00:53:48;;;;;;;;;;;;;;;;;;5123639;28;19923;-85
2022/04/08 00:56:14;;;;;;;;;;;;;;;;;;5123603;28;19920;-85
2022/04/08 00:58:40;;;;;;;;;;;;;;;;;;5122067;28;19916;-86
2022/04/08 01:01:05;;;;;;;;;;;;;;;;;;5104417;28;19912;-86
2022/04/08 01:03:31;;;;;;;;;;;;;;;;;;5120909;28;20341;-86
2022/04/08 01:05:56;;;;;;;;;;;;;;;;;;5102992;28;20301;-85
2022/04/08 01:08:22;;;;;;;;;;;;;;;;;;5121101;28;20056;-86
2022/04/08 01:10:48;;;;;;;;;;;;;;;;;;5119551;28;20006;-86
2022/04/08 01:13:13;;;;;;;;;;;;;;;;;;5101892;28;20048;-86
2022/04/08 01:15:38;;;;;;;;;;;;;;;;;;5118878;28;19915;-86
2022/04/08 01:18:05;;;;;;;;;;;;;;;;;;5118893;28;20041;-86
2022/04/08 01:20:31;;;;;;;;;;;;;;;;;;5118735;28;19922;-84
2022/04/08 01:22:56;;;;;;;;;;;;;;;;;;5119505;28;20369;-85
2022/04/08 01:25:21;;;;;;;;;;;;;;;;;;5118390;28;19915;-85
2022/04/08 01:27:47;;;;;;;;;;;;;;;;;;5118546;28;19916;-85
2022/04/08 01:30:12;;;;;;;;;;;;;;;;;;5100940;28;19923;-85
2022/04/08 01:32:37;;;;;;;;;;;;;;;;;;5118141;28;19954;-84
2022/04/08 01:35:03;;;;;;;;;;;;;;;;;;5119112;28;19927;-85
2022/04/08 01:37:28;;;;;;;;;;;;;;;;;;5101318;28;19916;-85
2022/04/08 01:39:54;;;;;;;;;;;;;;;;;;5117668;28;19925;-85
2022/04/08 01:42:23;;;;;;;;;;;;;;;;;;5100773;28;19916;-84
2022/04/08 01:44:49;;;;;;;;;;;;;;;;;;5117623;28;19915;-85
2022/04/08 01:47:14;;;;;;;;;;;;;;;;;;5118534;27;19923;-85
2022/04/08 01:49:39;;;;;;;;;;;;;;;;;;5117630;28;20393;-85
2022/04/08 01:52:05;;;;;;;;;;;;;;;;;;5100088;28;19966;-86
2022/04/08 01:54:30;;;;;;;;;;;;;;;;;;5117191;28;20331;-84
2022/04/08 01:56:56;;;;;;;;;;;;;;;;;;5117443;28;19961;-85
2022/04/08 01:59:21;;;;;;;;;;;;;;;;;;5116420;28;19916;-85
2022/04/08 02:01:46;;;;;;;;;;;;;;;;;;5118021;28;19964;-84
2022/04/08 02:04:13;;;;;;;;;;;;;;;;;;5117469;28;20459;-85
2022/04/08 02:06:40;;;;;;;;;;;;;;;;;;5099341;28;20275;-85
2022/04/08 02:09:07;;;;;;;;;;;;;;;;;;5117642;28;19968;-85
2022/04/08 02:11:33;;;;;;;;;;;;;;;;;;5099589;28;19920;-85
2022/04/08 02:13:58;;;;;;;;;;;;;;;;;;5117729;28;19920;-86
2022/04/08 02:16:23;;;;;;;;;;;;;;;;;;5122087;28;19943;-86
2022/04/08 02:18:49;;;;;;;;;;;;;;;;;;5124081;27;19915;-86
2022/04/08 02:21:19;;;;;;;;;;;;;;;;;;5119489;28;19916;-78
2022/04/08 02:23:45;;;;;;;;;;;;;;;;;;5120766;28;20392;-83
2022/04/08 02:26:13;;;;;;;;;;;;;;;;;;5115965;28;19943;-85
2022/04/08 02:28:38;;;;;;;;;;;;;;;;;;5116191;28;19923;-86
2022/04/08 02:31:05;;;;;;;;;;;;;;;;;;5116513;27;19980;-81
2022/04/08 02:33:30;;;;;;;;;;;;;;;;;;5119567;28;19916;-84
2022/04/08 02:35:56;;;;;;;;;;;;;;;;;;5119466;28;19916;-84
2022/04/08 02:38:21;;;;;;;;;;;;;;;;;;5101061;28;19937;-85
2022/04/08 02:40:46;;;;;;;;;;;;;;;;;;5117734;28;19938;-85
2022/04/08 02:43:12;;;;;;;;;;;;;;;;;;5119145;28;19923;-85
2022/04/08 02:45:37;;;;;;;;;;;;;;;;;;5101308;28;19916;-84
2022/04/08 02:48:02;;;;;;;;;;;;;;;;;;5097779;28;20286;-85
2022/04/08 02:50:28;;;;;;;;;;;;;;;;;;5096062;28;19916;-85
2022/04/08 02:52:53;;;;;;;;;;;;;;;;;;5097657;28;19916;-85
2022/04/08 02:55:18;;;;;;;;;;;;;;;;;;5097547;28;20010;-81
2022/04/08 02:57:46;;;;;;;;;;;;;;;;;;5106494;28;19920;-82
2022/04/08 03:00:15;;;;;;;;;;;;;;;;;;5116194;28;20370;-82
2022/04/08 03:02:40;;;;;;;;;;;;;;;;;;5115605;28;19916;-83
2022/04/08 03:05:06;;;;;;;;;;;;;;;;;;5119883;28;19915;-84
2022/04/08 03:07:32;;;;;;;;;;;;;;;;;;5117368;28;19920;-80
2022/04/08 03:09:57;;;;;;;;;;;;;;;;;;5119045;27;19927;-80
2022/04/08 03:12:23;;;;;;;;;;;;;;;;;;5118485;28;19920;-80
2022/04/08 03:14:48;;;;;;;;;;;;;;;;;;5119004;28;19916;-80
2022/04/08 03:17:13;;;;;;;;;;;;;;;;;;5118036;28;19911;-80
2022/04/08 03:19:39;;;;;;;;;;;;;;;;;;5117556;27;19916;-80
2022/04/08 03:22:06;;;;;;;;;;;;;;;;;;5117446;28;19923;-80
2022/04/08 03:24:31;;;;;;;;;;;;;;;;;;5119113;28;19921;-80
2022/04/08 03:26:57;;;;;;;;;;;;;;;;;;5117123;28;19915;-80
2022/04/08 03:29:23;;;;;;;;;;;;;;;;;;5118280;28;19920;-80
2022/04/08 03:31:48;;;;;;;;;;;;;;;;;;5119375;28;19923;-81
2022/04/08 03:34:13;;;;;;;;;;;;;;;;;;5119682;28;19919;-80
2022/04/08 03:36:38;;;;;;;;;;;;;;;;;;5119302;28;19962;-80
2022/04/08 03:39:04;;;;;;;;;;;;;;;;;;5117919;28;19923;-80
2022/04/08 03:41:29;;;;;;;;;;;;;;;;;;5119709;28;19916;-80
2022/04/08 03:43:54;;;;;;;;;;;;;;;;;;5119870;28;19916;-80
2022/04/08 03:46:20;;;;;;;;;;;;;;;;;;5121445;27;20010;-80
2022/04/08 03:48:45;;;;;;;;;;;;;;;;;;5115702;28;19924;-78
2022/04/08 03:51:11;;;;;;;;;;;;;;;;;;5114990;28;19915;-78
2022/04/08 03:53:36;;;;;;;;;;;;;;;;;;5116515;28;20314;-77
2022/04/08 03:56:02;;;;;;;;;;;;;;;;;;5115513;28;19974;-78
2022/04/08 03:58:28;;;;;;;;;;;;;;;;;;5117122;28;20269;-78
2022/04/08 04:00:53;;;;;;;;;;;;;;;;;;5116835;28;19965;-79
2022/04/08 04:03:19;;;;;;;;;;;;;;;;;;5116831;28;20358;-79
2022/04/08 04:05:44;;;;;;;;;;;;;;;;;;5116457;28;20053;-79
2022/04/08 04:08:15;;;;;;;;;;;;;;;;;;5116057;28;19966;-79
2022/04/08 04:10:40;;;;;;;;;;;;;;;;;;5116673;28;19924;-79
2022/04/08 04:13:05;;;;;;;;;;;;;;;;;;5116453;28;20238;-79
2022/04/08 04:15:30;;;;;;;;;;;;;;;;;;5115934;28;19941;-79
2022/04/08 04:17:56;;;;;;;;;;;;;;;;;;5116729;28;20023;-80
2022/04/08 04:20:22;;;;;;;;;;;;;;;;;;5119206;28;19920;-78
2022/04/08 04:22:47;;;;;;;;;;;;;;;;;;5118133;27;19977;-78
2022/04/08 04:25:12;;;;;;;;;;;;;;;;;;5119213;28;20312;-78
2022/04/08 04:27:38;;;;;;;;;;;;;;;;;;5119842;28;19916;-78
2022/04/08 04:30:03;;;;;;;;;;;;;;;;;;5119336;28;19923;-79
2022/04/08 04:32:29;;;;;;;;;;;;;;;;;;5120031;28;20377;-78
2022/04/08 04:34:54;;;;;;;;;;;;;;;;;;5119470;28;20277;-79
2022/04/08 04:37:19;;;;;;;;;;;;;;;;;;5119243;28;19915;-78
2022/04/08 04:39:44;;;;;;;;;;;;;;;;;;5119589;28;20377;-78
2022/04/08 04:42:10;;;;;;;;;;;;;;;;;;5119387;27;20281;-78
2022/04/08 04:44:35;;;;;;;;;;;;;;;;;;5118294;28;19916;-78
2022/04/08 04:47:01;;;;;;;;;;;;;;;;;;5119135;28;19923;-78
2022/04/08 04:49:26;;;;;;;;;;;;;;;;;;5119043;27;20319;-78
2022/04/08 04:51:52;;;;;;;;;;;;;;;;;;5118762;28;19923;-78
2022/04/08 04:54:17;;;;;;;;;;;;;;;;;;5116268;28;20369;-77
2022/04/08 04:56:43;;;;;;;;;;;;;;;;;;5117579;28;19964;-78
2022/04/08 04:59:09;;;;;;;;;;;;;;;;;;5117241;28;20057;-78
2022/04/08 05:01:34;;;;;;;;;;;;;;;;;;5118505;27;19976;-78
2022/04/08 05:03:59;;;;;;;;;;;;;;;;;;5118436;28;19935;-78
2022/04/08 05:06:25;;;;;;;;;;;;;;;;;;5118318;27;19916;-78
2022/04/08 05:08:50;;;;;;;;;;;;;;;;;;5117611;28;19930;-77
2022/04/08 05:11:20;;;;;;;;;;;;;;;;;;5118109;28;20392;-78
2022/04/08 05:13:49;;;;;;;;;;;;;;;;;;5084399;28;20438;-77
2022/04/08 05:16:14;;;;;;;;;;;;;;;;;;5118776;28;19916;-78
2022/04/08 05:18:40;;;;;;;;;;;;;;;;;;5117111;28;19916;-78
2022/04/08 05:21:05;;;;;;;;;;;;;;;;;;5117876;28;19916;-78
2022/04/08 05:23:32;;;;;;;;;;;;;;;;;;5115862;28;19915;-77
2022/04/08 05:25:57;;;;;;;;;;;;;;;;;;5117769;28;19916;-77
2022/04/08 05:28:22;;;;;;;;;;;;;;;;;;5117482;28;20019;-77
2022/04/08 05:30:48;;;;;;;;;;;;;;;;;;5117149;28;19968;-77
2022/04/08 05:33:13;;;;;;;;;;;;;;;;;;5117147;28;19922;-77
2022/04/08 05:35:38;;;;;;;;;;;;;;;;;;5116968;28;19915;-77
2022/04/08 05:38:04;;;;;;;;;;;;;;;;;;5117213;28;19912;-78
2022/04/08 05:40:29;;;;;;;;;;;;;;;;;;5116415;28;20297;-78
2022/04/08 05:42:54;;;;;;;;;;;;;;;;;;5117627;28;19916;-77
2022/04/08 05:45:22;;;;;;;;;;;;;;;;;;5117080;27;19916;-78
2022/04/08 05:47:49;;;;;;;;;;;;;;;;;;5118338;27;20510;-78
2022/04/08 05:50:15;;;;;;;;;;;;;;;;;;5116626;28;19920;-78
2022/04/08 05:52:40;;;;;;;;;;;;;;;;;;5117322;28;19916;-78
2022/04/08 05:55:06;;;;;;;;;;;;;;;;;;5116466;28;19927;-78
2022/04/08 05:57:34;;;;;;;;;;;;;;;;;;5118194;27;19916;-79
2022/04/08 06:00:00;;;;;;;;;;;;;;;;;;5117814;28;19967;-79
2022/04/08 06:02:25;;;;;;;;;;;;;;;;;;5117750;28;20310;-79
2022/04/08 06:04:51;;;;;;;;;;;;;;;;;;5115724;28;19923;-79
2022/04/08 06:07:16;;;;;;;;;;;;;;;;;;5117723;28;19916;-78
2022/04/08 06:09:41;;;;;;;;;;;;;;;;;;5116199;28;19931;-79
2022/04/08 06:12:07;;;;;;;;;;;;;;;;;;5117438;28;19916;-80
2022/04/08 06:14:32;;;;;;;;;;;;;;;;;;5117327;28;19916;-79
2022/04/08 06:16:58;;;;;;;;;;;;;;;;;;5116517;28;19916;-79
2022/04/08 06:19:23;;;;;;;;;;;;;;;;;;5116943;28;20445;-79
2022/04/08 06:21:48;;;;;;;;;;;;;;;;;;5116508;28;19920;-78
2022/04/08 06:24:14;;;;;;;;;;;;;;;;;;5135901;27;19929;-79
2022/04/08 06:26:39;;;;;;;;;;;;;;;;;;5137982;27;20364;-79
2022/04/08 06:29:05;;;;;;;;;;;;;;;;;;5138344;27;19919;-79
2022/04/08 06:31:33;;;;;;;;;;;;;;;;;;5139299;27;19915;-79
2022/04/08 06:33:59;;;;;;;;;;;;;;;;;;5139570;27;20364;-79
2022/04/08 06:36:28;;;;;;;;;;;;;;;;;;5139283;27;19947;-79
2022/04/08 06:38:54;;;;;;;;;;;;;;;;;;5139303;27;19919;-79
2022/04/08 06:41:19;;;;;;;;;;;;;;;;;;5139154;27;19979;-79
2022/04/08 06:43:45;;;;;;;;;;;;;;;;;;5138146;27;19916;-79
2022/04/08 06:46:10;;;;;;;;;;;;;;;;;;5139204;27;20257;-79
2022/04/08 06:48:36;;;;;;;;;;;;;;;;;;5137610;27;19926;-79
2022/04/08 06:51:04;;;;;;;;;;;;;;;;;;5139818;27;19922;-80
2022/04/08 06:53:30;;;;;;;;;;;;;;;;;;5128095;27;19973;-79
2022/04/08 06:55:55;;;;;;;;;;;;;;;;;;5118685;28;19927;-79
2022/04/08 06:58:20;;;;;;;;;;;;;;;;;;5120226;28;19915;-79
2022/04/08 07:00:46;;;;;;;;;;;;;;;;;;5119108;28;19916;-79
2022/04/08 07:03:11;;;;;;;;;;;;;;;;;;5118379;28;19916;-82
2022/04/08 07:05:36;;;;;;;;;;;;;;;;;;5118949;28;19924;-80
2022/04/08 07:08:02;;;;;;;;;;;;;;;;;;5119670;28;19938;-80
2022/04/08 07:10:27;;;;;;;;;;;;;;;;;;5118771;28;19916;-78
2022/04/08 07:12:52;;;;;;;;;;;;;;;;;;5117796;28;20022;-81
2022/04/08 07:15:18;;;;;;;;;;;;;;;;;;5095368;28;19939;-81
2022/04/08 07:17:43;;;;;;;;;;;;;;;;;;5095974;28;19946;-78
2022/04/08 07:20:10;;;;;;;;;;;;;;;;;;5095163;28;19966;-80
2022/04/08 07:22:36;;;;;;;;;;;;;;;;;;5094929;28;20010;-78
2022/04/08 07:25:01;;;;;;;;;;;;;;;;;;5095495;28;19963;-80
2022/04/08 07:27:26;;;;;;;;;;;;;;;;;;5095686;28;20452;-79
2022/04/08 07:29:52;;;;;;;;;;;;;;;;;;5096973;28;19965;-79
2022/04/08 07:32:20;;;;;;;;;;;;;;;;;;5097264;28;19927;-79
2022/04/08 07:34:52;;;;;;;;;;;;;;;;;;5096936;28;20352;-79
2022/04/08 07:37:27;;;;;;;;;;;;;;;;;;5098677;28;19916;-82
2022/04/08 07:39:52;;;;;;;;;;;;;;;;;;5096452;28;19916;-82
2022/04/08 07:42:17;;;;;;;;;;;;;;;;;;5095032;28;19969;-81
2022/04/08 07:44:43;;;;;;;;;;;;;;;;;;5101094;28;20262;-81
2022/04/08 07:47:08;;;;;;;;;;;;;;;;;;5116304;28;20270;-77
2022/04/08 07:49:33;;;;;;;;;;;;;;;;;;5116587;28;19973;-80
2022/04/08 07:51:59;;;;;;;;;;;;;;;;;;5117122;28;19915;-79
2022/04/08 07:54:24;;;;;;;;;;;;;;;;;;5124631;27;19919;-77
2022/04/08 07:56:49;;;;;;;;;;;;;;;;;;5141079;27;19976;-77
2022/04/08 07:59:15;;;;;;;;;;;;;;;;;;5142417;27;19911;-82
2022/04/08 08:01:40;;;;;;;;;;;;;;;;;;5140089;27;20017;-81
2022/04/08 08:04:05;;;;;;;;;;;;;;;;;;5141333;27;19958;-80
2022/04/08 08:06:30;;;;;;;;;;;;;;;;;;5141657;27;19949;-79
2022/04/08 08:08:58;;;;;;;;;;;;;;;;;;5139620;27;19942;-78
2022/04/08 08:11:23;;;;;;;;;;;;;;;;;;5139839;27;19922;-79
2022/04/08 08:13:49;;;;;;;;;;;;;;;;;;5137455;27;19915;-80
2022/04/08 08:16:15;;;;;;;;;;;;;;;;;;5099275;28;19979;-79
2022/04/08 08:18:40;;;;;;;;;;;;;;;;;;5099740;28;19956;-80
2022/04/08 08:21:05;;;;;;;;;;;;;;;;;;5102159;28;20362;-81
2022/04/08 08:23:31;;;;;;;;;;;;;;;;;;5102275;28;19916;-80
2022/04/08 08:25:56;;;;;;;;;;;;;;;;;;5102824;28;19965;-81
2022/04/08 08:28:24;;;;;;;;;;;;;;;;;;5101064;28;19920;-81
2022/04/08 08:30:49;;;;;;;;;;;;;;;;;;5101512;28;19916;-80
2022/04/08 08:33:15;;;;;;;;;;;;;;;;;;5102764;28;20007;-79
2022/04/08 08:35:40;;;;;;;;;;;;;;;;;;5100403;28;19915;-79
2022/04/08 08:38:07;;;;;;;;;;;;;;;;;;5100764;28;19923;-79
2022/04/08 08:40:33;;;;;;;;;;;;;;;;;;5100708;28;19916;-80
2022/04/08 08:42:59;;;;;;;;;;;;;;;;;;5101248;28;19955;-78
2022/04/08 08:45:29;;;;;;;;;;;;;;;;;;5100822;28;20381;-79
2022/04/08 08:47:58;;;;;;;;;;;;;;;;;;5114874;28;19919;-79
2022/04/08 08:50:24;;;;;;;;;;;;;;;;;;5121718;27;19924;-79
2022/04/08 08:52:50;;;;;;;;;;;;;;;;;;5121471;28;20432;-79
2022/04/08 08:55:16;;;;;;;;;;;;;;;;;;5121890;28;19924;-79
2022/04/08 08:57:42;;;;;;;;;;;;;;;;;;5121692;28;20544;-79
2022/04/08 09:00:13;;;;;;;;;;;;;;;;;;5123123;28;20285;-79
2022/04/08 09:02:39;;;;;;;;;;;;;;;;;;5118004;28;19951;-80
2022/04/08 09:05:13;;;;;;;;;;;;;;;;;;5124364;28;19916;-79
2022/04/08 09:07:38;;;;;;;;;;;;;;;;;;5122498;28;19922;-79
2022/04/08 09:10:04;;;;;;;;;;;;;;;;;;5129891;27;19919;-79
2022/04/08 09:12:30;;;;;;;;;;;;;;;;;;5141318;27;19919;-79
2022/04/08 09:14:57;;;;;;;;;;;;;;;;;;5139410;27;19915;-80
2022/04/08 09:17:23;;;;;;;;;;;;;;;;;;5121620;28;19916;-80
2022/04/08 09:19:49;;;;;;;;;;;;;;;;;;5121074;28;20389;-80
2022/04/08 09:22:18;;;;;;;;;;;;;;;;;;5141562;27;19915;-80
2022/04/08 09:24:43;;;;;;;;;;;;;;;;;;5140922;27;19980;-80
2022/04/08 09:27:10;;;;;;;;;;;;;;;;;;5122722;27;19916;-79
2022/04/08 09:29:35;;;;;;;;;;;;;;;;;;5120239;28;19927;-79
2022/04/08 09:32:07;;;;;;;;;;;;;;;;;;5106503;28;19916;-79
2022/04/08 09:34:32;;;;;;;;;;;;;;;;;;5099927;28;19923;-79
2022/04/08 09:36:58;;;;;;;;;;;;;;;;;;5099351;28;19916;-80
2022/04/08 09:39:24;;;;;;;;;;;;;;;;;;5098807;28;19927;-79
2022/04/08 09:41:51;;;;;;;;;;;;;;;;;;5100493;28;19916;-79
2022/04/08 09:44:22;;;;;;;;;;;;;;;;;;5117891;28;19920;-79
2022/04/08 09:46:47;;;;;;;;;;;;;;;;;;5117468;28;19930;-79
2022/04/08 09:49:13;;;;;;;;;;;;;;;;;;5138315;27;19927;-78
2022/04/08 09:51:39;;;;;;;;;;;;;;;;;;5140712;27;20369;-80
2022/04/08 09:54:14;;;;;;;;;;;;;;;;;;5107076;27;20321;-80
2022/04/08 09:56:41;;;;;;;;;;;;;;;;;;5100272;28;19927;-79
2022/04/08 09:59:06;;;;;;;;;;;;;;;;;;5101032;28;20305;-78
2022/04/08 10:01:33;;;;;;;;;;;;;;;;;;5098116;28;19916;-80
2022/04/08 10:03:59;;;;;;;;;;;;;;;;;;5113087;28;19926;-78
2022/04/08 10:06:24;;;;;;;;;;;;;;;;;;5116421;28;20010;-80
2022/04/08 10:08:50;;;;;;;;;;;;;;;;;;5127449;27;19923;-78
2022/04/08 10:11:22;;;;;;;;;;;;;;;;;;5135759;27;19922;-77
2022/04/08 10:13:54;;;;;;;;;;;;;;;;;;5132793;27;20309;-83
2022/04/08 10:16:23;;;;;;;;;;;;;;;;;;5122572;28;19916;-82
2022/04/08 10:18:49;;;;;;;;;;;;;;;;;;5126255;27;20284;-82
2022/04/08 10:21:15;;;;;;;;;;;;;;;;;;5143795;27;19930;-80
2022/04/08 10:23:49;;;;;;;;;;;;;;;;;;5143843;27;19922;-81
2022/04/08 10:26:22;;;;;;;;;;;;;;;;;;5127544;27;19916;-82
2022/04/08 10:28:48;;;;;;;;;;;;;;;;;;5117760;28;20335;-81
2022/04/08 10:31:17;;;;;;;;;;;;;;;;;;5133475;27;19919;-79
2022/04/08 10:33:47;;;;;;;;;;;;;;;;;;5139375;27;19915;-80
2022/04/08 10:36:13;;;;;;;;;;;;;;;;;;5138363;27;19930;-80
2022/04/08 10:38:38;;;;;;;;;;;;;;;;;;5119676;27;19920;-81
2022/04/08 10:41:08;;;;;;;;;;;;;;;;;;5118150;28;20304;-78
2022/04/08 10:43:47;;;;;;;;;;;;;;;;;;5100614;28;19927;-80
2022/04/08 10:46:12;;;;;;;;;;;;;;;;;;5096638;28;20007;-79
2022/04/08 10:48:38;;;;;;;;;;;;;;;;;;5096513;28;20297;-78
2022/04/08 10:51:10;;;;;;;;;;;;;;;;;;5097300;28;19928;-81
2022/04/08 10:53:40;;;;;;;;;;;;;;;;;;5097756;28;20335;-81
2022/04/08 10:56:10;;;;;;;;;;;;;;;;;;5098153;28;19931;-80
2022/04/08 10:58:46;;;;;;;;;;;;;;;;;;5095960;28;19998;-78
2022/04/08 11:01:18;;;;;;;;;;;;;;;;;;5098699;28;19985;-78
2022/04/08 11:03:46;;;;;;;;;;;;;;;;;;5097525;28;20562;-78
2022/04/08 11:06:15;;;;;;;;;;;;;;;;;;5099015;28;19917;-78
2022/04/08 11:08:40;;;;;;;;;;;;;;;;;;5097803;28;19927;-78
2022/04/08 11:11:05;;;;;;;;;;;;;;;;;;5098650;28;19916;-79
2022/04/08 11:13:30;;;;;;;;;;;;;;;;;;5132111;27;19973;-79
2022/04/08 11:15:56;;;;;;;;;;;;;;;;;;5139851;27;19916;-79
2022/04/08 11:18:24;;;;;;;;;;;;;;;;;;5139719;27;19923;-79
2022/04/08 11:20:50;;;;;;;;;;;;;;;;;;5139072;27;19966;-79
2022/04/08 11:23:24;;;;;;;;;;;;;;;;;;5142407;27;19915;-80
2022/04/08 11:25:49;;;;;;;;;;;;;;;;;;5143284;27;20389;-80
2022/04/08 11:28:16;;;;;;;;;;;;;;;;;;5142581;27;19923;-79
2022/04/08 11:30:42;;;;;;;;;;;;;;;;;;5146745;27;19963;-79
2022/04/08 11:33:13;;;;;;;;;;;;;;;;;;5138675;27;19923;-79
2022/04/08 11:35:39;;;;;;;;;;;;;;;;;;5124952;27;19916;-79
2022/04/08 11:38:14;;;;;;;;;;;;;;;;;;5120379;27;19922;-79
2022/04/08 11:40:39;;;;;;;;;;;;;;;;;;5114152;27;19922;-79
2022/04/08 11:43:05;;;;;;;;;;;;;;;;;;5106417;28;19912;-79
2022/04/08 11:45:30;;;;;;;;;;;;;;;;;;5117292;27;19929;-79
2022/04/08 11:47:56;;;;;;;;;;;;;;;;;;5122547;28;19938;-80
2022/04/08 11:50:26;;;;;;;;;;;;;;;;;;5121577;28;19920;-79
2022/04/08 11:52:54;;;;;;;;;;;;;;;;;;5112022;28;19920;-81
2022/04/08 11:55:24;;;;;;;;;;;;;;;;;;5117488;27;19968;-81
2022/04/08 11:57:50;;;;;;;;;;;;;;;;;;5111438;28;20014;-80
2022/04/08 12:00:15;;;;;;;;;;;;;;;;;;5109119;28;19970;-81
2022/04/08 12:02:41;;;;;;;;;;;;;;;;;;5112014;28;20010;-80
2022/04/08 12:05:07;;;;;;;;;;;;;;;;;;5120096;28;19942;-82
2022/04/08 12:07:33;;;;;;;;;;;;;;;;;;5120133;28;19916;-80
2022/04/08 12:09:59;;;;;;;;;;;;;;;;;;5119598;27;19924;-80
2022/04/08 12:12:25;;;;;;;;;;;;;;;;;;5119918;28;19922;-80
2022/04/08 12:14:50;;;;;;;;;;;;;;;;;;5110368;28;20319;-81
2022/04/08 12:17:15;;;;;;;;;;;;;;;;;;5098388;28;19912;-80
2022/04/08 12:19:41;;;;;;;;;;;;;;;;;;5106011;27;19970;-81
2022/04/08 12:22:14;;;;;;;;;;;;;;;;;;5140434;27;20304;-80
2022/04/08 12:24:41;;;;;;;;;;;;;;;;;;5139472;27;19916;-80
2022/04/08 12:27:17;;;;;;;;;;;;;;;;;;5139734;27;19985;-80
2022/04/08 12:29:43;;;;;;;;;;;;;;;;;;5142615;27;20289;-82
2022/04/08 12:32:12;;;;;;;;;;;;;;;;;;5142401;27;19915;-81
2022/04/08 12:34:38;;;;;;;;;;;;;;;;;;5143426;27;19970;-81
2022/04/08 12:37:03;;;;;;;;;;;;;;;;;;5140960;27;20388;-80
2022/04/08 12:39:29;;;;;;;;;;;;;;;;;;5137823;27;19923;-80
2022/04/08 12:41:57;;;;;;;;;;;;;;;;;;5137344;27;19915;-80
2022/04/08 12:44:22;;;;;;;;;;;;;;;;;;5138972;27;19964;-80
2022/04/08 12:46:49;;;;;;;;;;;;;;;;;;5125609;27;20336;-80
2022/04/08 12:49:14;;;;;;;;;;;;;;;;;;5098111;28;19969;-80
2022/04/08 12:51:40;;;;;;;;;;;;;;;;;;5098212;28;19921;-80
2022/04/08 12:54:05;;;;;;;;;;;;;;;;;;5100078;28;19965;-82
2022/04/08 12:56:30;;;;;;;;;;;;;;;;;;5101711;28;20293;-82
2022/04/08 12:58:57;;;;;;;;;;;;;;;;;;5102155;28;20357;-81
2022/04/08 13:01:23;;;;;;;;;;;;;;;;;;5101107;28;19916;-82
2022/04/08 13:03:49;;;;;;;;;;;;;;;;;;5101546;28;20293;-80
2022/04/08 13:06:14;;;;;;;;;;;;;;;;;;5099475;28;19927;-80
2022/04/08 13:08:39;;;;;;;;;;;;;;;;;;5101228;28;19920;-81
2022/04/08 13:11:07;;;;;;;;;;;;;;;;;;5098934;28;20298;-82
2022/04/08 13:13:32;;;;;;;;;;;;;;;;;;5102347;28;19961;-82
2022/04/08 13:15:58;;;;;;;;;;;;;;;;;;5102248;28;19987;-82
2022/04/08 13:18:23;;;;;;;;;;;;;;;;;;5101504;28;19943;-82
2022/04/08 13:20:48;;;;;;;;;;;;;;;;;;5101723;28;19916;-81
2022/04/08 13:23:14;;;;;;;;;;;;;;;;;;5101114;28;19927;-81
2022/04/08 13:25:39;;;;;;;;;;;;;;;;;;5103548;28;19922;-83
2022/04/08 13:28:05;;;;;;;;;;;;;;;;;;5103778;28;19916;-82
2022/04/08 13:30:30;;;;;;;;;;;;;;;;;;5101456;28;19948;-83
2022/04/08 13:32:56;;;;;;;;;;;;;;;;;;5102065;28;19923;-82
2022/04/08 13:35:21;;;;;;;;;;;;;;;;;;5101598;28;19921;-81
2022/04/08 13:37:46;;;;;;;;;;;;;;;;;;5101091;28;19917;-81
2022/04/08 13:40:12;;;;;;;;;;;;;;;;;;5100708;28;19916;-81
2022/04/08 13:42:37;;;;;;;;;;;;;;;;;;5100688;28;19969;-81
2022/04/08 13:45:03;;;;;;;;;;;;;;;;;;5117323;28;19915;-81
2022/04/08 13:47:29;;;;;;;;;;;;;;;;;;5119995;28;19920;-81
2022/04/08 13:49:54;;;;;;;;;;;;;;;;;;5120736;28;19949;-81
2022/04/08 13:52:19;;;;;;;;;;;;;;;;;;5120187;28;19923;-81
2022/04/08 13:54:45;;;;;;;;;;;;;;;;;;5120112;28;19931;-81
2022/04/08 13:57:10;;;;;;;;;;;;;;;;;;5118891;28;19912;-80
2022/04/08 13:59:35;;;;;;;;;;;;;;;;;;5120496;28;19916;-83
2022/04/08 14:02:01;;;;;;;;;;;;;;;;;;5119662;28;20000;-82
2022/04/08 14:04:26;;;;;;;;;;;;;;;;;;5117929;28;19924;-78
2022/04/08 14:06:52;;;;;;;;;;;;;;;;;;5118300;28;20270;-80
2022/04/08 14:09:17;;;;;;;;;;;;;;;;;;5117181;28;19941;-79
2022/04/08 14:11:43;;;;;;;;;;;;;;;;;;5112394;28;19916;-80
2022/04/08 14:14:10;;;;;;;;;;;;;;;;;;5098389;28;19916;-80
2022/04/08 14:16:36;;;;;;;;;;;;;;;;;;5097937;28;19916;-81
2022/04/08 14:19:05;;;;;;;;;;;;;;;;;;5117681;28;19922;-80
2022/04/08 14:21:30;;;;;;;;;;;;;;;;;;5113053;28;19916;-80
2022/04/08 14:23:58;;;;;;;;;;;;;;;;;;5105870;28;19966;-81
2022/04/08 14:26:23;;;;;;;;;;;;;;;;;;5099506;28;20369;-82
2022/04/08 14:28:51;;;;;;;;;;;;;;;;;;5120103;28;19941;-81
2022/04/08 14:31:20;;;;;;;;;;;;;;;;;;5108316;28;19916;-81
2022/04/08 14:33:45;;;;;;;;;;;;;;;;;;5106323;28;19964;-81
2022/04/08 14:36:14;;;;;;;;;;;;;;;;;;5112781;28;20319;-81
2022/04/08 14:38:39;;;;;;;;;;;;;;;;;;5107114;28;19916;-82
2022/04/08 14:41:07;;;;;;;;;;;;;;;;;;5107849;28;20507;-81
2022/04/08 14:43:33;;;;;;;;;;;;;;;;;;5110849;28;20060;-81
2022/04/08 14:46:04;;;;;;;;;;;;;;;;;;5096183;28;19979;-81
2022/04/08 14:48:30;;;;;;;;;;;;;;;;;;5107334;28;19939;-82
2022/04/08 14:50:56;;;;;;;;;;;;;;;;;;5114216;28;19949;-81
2022/04/08 14:53:21;;;;;;;;;;;;;;;;;;5097799;28;20386;-81
2022/04/08 14:55:46;;;;;;;;;;;;;;;;;;5097230;28;19920;-81
2022/04/08 14:58:12;;;;;;;;;;;;;;;;;;5115482;28;19922;-79
2022/04/08 15:00:37;;;;;;;;;;;;;;;;;;5115974;28;19977;-80
2022/04/08 15:03:03;;;;;;;;;;;;;;;;;;5113185;28;19955;-80
2022/04/08 15:05:29;;;;;;;;;;;;;;;;;;5115928;28;19994;-80
2022/04/08 15:07:54;;;;;;;;;;;;;;;;;;5116475;28;20389;-82
2022/04/08 15:10:20;;;;;;;;;;;;;;;;;;5117759;27;19924;-81
2022/04/08 15:12:45;;;;;;;;;;;;;;;;;;5117999;28;20400;-83
2022/04/08 15:15:10;;;;;;;;;;;;;;;;;;5117122;28;20277;-82
2022/04/08 15:17:36;;;;;;;;;;;;;;;;;;5117229;28;19923;-82
2022/04/08 15:20:01;;;;;;;;;;;;;;;;;;5097374;28;20361;-79
2022/04/08 15:22:26;;;;;;;;;;;;;;;;;;5116394;28;20011;-78
2022/04/08 15:24:54;;;;;;;;;;;;;;;;;;5117237;28;19919;-78
2022/04/08 15:27:19;;;;;;;;;;;;;;;;;;5117123;28;19923;-81
2022/04/08 15:29:45;;;;;;;;;;;;;;;;;;5116017;28;19920;-81
2022/04/08 15:32:12;;;;;;;;;;;;;;;;;;5116270;28;19919;-81
2022/04/08 15:34:40;;;;;;;;;;;;;;;;;;5114447;28;19923;-81
2022/04/08 15:37:05;;;;;;;;;;;;;;;;;;5115775;28;19931;-82
2022/04/08 15:39:30;;;;;;;;;;;;;;;;;;5115602;28;19916;-83
2022/04/08 15:41:56;;;;;;;;;;;;;;;;;;5115016;28;19964;-83
2022/04/08 15:44:21;;;;;;;;;;;;;;;;;;5114759;28;20274;-83
2022/04/08 15:46:46;;;;;;;;;;;;;;;;;;5116016;28;19953;-82
2022/04/08 15:49:12;;;;;;;;;;;;;;;;;;5117252;27;19965;-81
2022/04/08 15:51:40;;;;;;;;;;;;;;;;;;5103275;27;19922;-81
2022/04/08 15:54:05;;;;;;;;;;;;;;;;;;5117635;28;19937;-79
2022/04/08 15:56:30;;;;;;;;;;;;;;;;;;5121909;28;19919;-81
2022/04/08 15:58:56;;;;;;;;;;;;;;;;;;5119379;28;19923;-78
2022/04/08 16:01:22;;;;;;;;;;;;;;;;;;5118883;28;19916;-81
2022/04/08 16:03:47;;;;;;;;;;;;;;;;;;5118073;28;19947;-81
2022/04/08 16:06:12;;;;;;;;;;;;;;;;;;5118391;28;20385;-79
2022/04/08 16:08:38;;;;;;;;;;;;;;;;;;5119856;28;19977;-84
2022/04/08 16:11:05;;;;;;;;;;;;;;;;;;5121121;28;19935;-83
2022/04/08 16:13:30;;;;;;;;;;;;;;;;;;5121028;28;19916;-84
2022/04/08 16:15:56;;;;;;;;;;;;;;;;;;5104281;28;20479;-84
2022/04/08 16:18:21;;;;;;;;;;;;;;;;;;5102670;28;19969;-82
2022/04/08 16:20:46;;;;;;;;;;;;;;;;;;5108138;28;19916;-80
2022/04/08 16:23:12;;;;;;;;;;;;;;;;;;5101749;28;19920;-79
2022/04/08 16:25:37;;;;;;;;;;;;;;;;;;5101331;28;19927;-81
2022/04/08 16:28:03;;;;;;;;;;;;;;;;;;5108052;28;19922;-81
2022/04/08 16:30:28;;;;;;;;;;;;;;;;;;5101516;28;19920;-77
2022/04/08 16:32:53;;;;;;;;;;;;;;;;;;5100992;28;20354;-78
2022/04/08 16:35:19;;;;;;;;;;;;;;;;;;5098022;28;19942;-78
2022/04/08 16:37:44;;;;;;;;;;;;;;;;;;5100558;28;19938;-78